Time;durP1;ratioP1;P1;durP2;ratioP2;P2;SDS_P1;SDS_P2;PMS_P1;PMS_P2;Temp;Humidity;BMP_temperature;BMP_pressure;BME280_temperature;BME280_humidity;BME280_pressure;Samples;Min_cycle;Max_cycle;Signal;HPM_P1;HPM_P2
2022/03/05 00:01:00;;;;;;;12.73;11.40;;;;;;;1.01;60.46;98943.03;5013408;28;103211;-69
2022/03/05 00:03:28;;;;;;;12.70;11.37;;;;;;;1.16;60.27;98942.56;5012984;27;103165;-69
2022/03/05 00:05:58;;;;;;;14.23;11.70;;;;;;;0.86;61.06;98948.69;5016103;27;102642;-70
2022/03/05 00:08:26;;;;;;;12.80;11.40;;;;;;;0.84;61.88;98945.28;5014200;28;104274;-70
2022/03/05 00:10:54;;;;;;;12.93;11.23;;;;;;;1.04;60.61;98948.97;5012294;27;103206;-70
2022/03/05 00:13:21;;;;;;;12.52;11.23;;;;;;;0.70;61.52;98944.84;5011182;28;104089;-74
2022/03/05 00:15:51;;;;;;;13.27;11.77;;;;;;;0.75;61.61;98941.19;5014286;28;102608;-75
2022/03/05 00:18:19;;;;;;;13.48;12.07;;;;;;;0.82;61.28;98947.06;5029540;27;102890;-76
2022/03/05 00:20:47;;;;;;;14.38;12.23;;;;;;;0.92;61.26;98940.69;5010997;27;103821;-75
2022/03/05 00:23:18;;;;;;;13.90;12.30;;;;;;;0.67;62.29;98947.53;5011941;28;103295;-74
2022/03/05 00:25:46;;;;;;;12.85;11.55;;;;;;;1.05;61.32;98944.63;5011093;28;102693;-69
2022/03/05 00:28:15;;;;;;;13.15;11.65;;;;;;;0.65;62.07;98944.13;5014234;28;103479;-69
2022/03/05 00:30:43;;;;;;;12.63;11.03;;;;;;;0.52;62.79;98949.66;5014318;27;103372;-69
2022/03/05 00:33:13;;;;;;;13.05;11.50;;;;;;;0.86;61.70;98946.94;5016858;28;104019;-69
2022/03/05 00:35:41;;;;;;;13.43;11.20;;;;;;;0.62;62.05;98955.44;5018297;28;102615;-69
2022/03/05 00:38:09;;;;;;;12.65;11.10;;;;;;;0.51;62.36;98949.69;5014964;28;102845;-71
2022/03/05 00:40:39;;;;;;;14.25;11.68;;;;;;;0.67;62.72;98952.72;5016998;28;103186;-69
2022/03/05 00:43:07;;;;;;;12.25;10.73;;;;;;;1.28;60.62;98952.59;5013217;28;103162;-69
2022/03/05 00:45:36;;;;;;;11.25;10.05;;;;;;;1.40;60.50;98944.41;5017764;27;102699;-74
2022/03/05 00:48:04;;;;;;;13.87;11.40;;;;;;;1.23;60.16;98946.69;5015485;28;103740;-74
2022/03/05 00:50:33;;;;;;;10.63;9.57;;;;;;;1.43;60.33;98944.28;5012781;28;103195;-74
2022/03/05 00:53:01;;;;;;;10.35;9.27;;;;;;;1.90;58.80;98942.75;5017520;28;103178;-74
2022/03/05 00:55:28;;;;;;;12.40;10.90;;;;;;;1.54;58.91;98944.81;5014235;27;102712;-75
2022/03/05 00:57:58;;;;;;;12.55;11.25;;;;;;;1.01;60.52;98954.28;5015001;28;103699;-74
2022/03/05 01:00:26;;;;;;;10.43;9.32;;;;;;;1.72;59.24;98944.19;5015071;28;103617;-74
2022/03/05 01:02:54;;;;;;;9.52;8.63;;;;;;;2.05;58.24;98941.38;5011370;28;104145;-69
2022/03/05 01:05:22;;;;;;;9.13;8.23;;;;;;;2.23;57.41;98943.34;5017779;27;102640;-69
2022/03/05 01:07:50;;;;;;;10.47;9.37;;;;;;;2.30;56.84;98944.84;5012536;28;102801;-69
2022/03/05 01:10:18;;;;;;;10.77;9.68;;;;;;;2.29;56.44;98940.53;5015372;27;103602;-68
2022/03/05 01:12:46;;;;;;;10.35;9.25;;;;;;;2.22;57.13;98939.00;5014304;28;103356;-73
2022/03/05 01:15:15;;;;;;;11.57;10.48;;;;;;;2.30;56.81;98943.06;5014980;28;103976;-73
2022/03/05 01:17:43;;;;;;;13.50;12.10;;;;;;;1.97;57.24;98948.59;5015635;28;103751;-74
2022/03/05 01:20:12;;;;;;;12.07;10.38;;;;;;;2.05;57.86;98941.38;5016966;28;104194;-74
2022/03/05 01:22:40;;;;;;;11.10;10.00;;;;;;;2.14;57.28;98941.03;5017174;28;103224;-74
2022/03/05 01:25:09;;;;;;;11.05;9.95;;;;;;;2.20;57.39;98933.00;5019003;28;102810;-73
2022/03/05 01:27:37;;;;;;;12.10;10.63;;;;;;;1.46;59.43;98936.38;5015589;28;102950;-73
2022/03/05 01:30:06;;;;;;;10.15;9.15;;;;;;;1.77;58.73;98934.47;5012722;28;104218;-74
2022/03/05 01:32:35;;;;;;;12.00;10.80;;;;;;;1.53;59.58;98937.91;5017833;27;103262;-72
2022/03/05 01:35:04;;;;;;;9.23;8.32;;;;;;;1.88;58.61;98938.50;5013794;28;102643;-74
2022/03/05 01:37:32;;;;;;;13.32;11.93;;;;;;;1.16;60.05;98934.75;5016740;28;102852;-73
2022/03/05 01:40:00;;;;;;;12.27;10.98;;;;;;;1.36;60.10;98934.97;5016373;28;103284;-73
2022/03/05 01:42:28;;;;;;;13.90;12.38;;;;;;;1.20;60.07;98933.75;5017162;27;103210;-74
2022/03/05 01:44:56;;;;;;;12.38;10.80;;;;;;;1.17;60.46;98926.03;5013503;27;102758;-73
2022/03/05 01:47:25;;;;;;;12.20;10.98;;;;;;;1.11;60.81;98926.22;5013686;28;103565;-74
2022/03/05 01:49:54;;;;;;;10.38;9.27;;;;;;;1.62;59.38;98932.41;5012485;28;103983;-73
2022/03/05 01:52:22;;;;;;;8.90;8.00;;;;;;;1.87;58.31;98936.78;5016180;28;103198;-73
2022/03/05 01:54:51;;;;;;;10.23;9.23;;;;;;;1.88;58.11;98933.28;5016991;28;102986;-73
2022/03/05 01:57:19;;;;;;;10.43;9.35;;;;;;;1.83;58.08;98937.78;5016318;27;102678;-73
2022/03/05 01:59:47;;;;;;;11.50;10.33;;;;;;;1.73;58.46;98930.28;5015436;28;103223;-74
2022/03/05 02:02:15;;;;;;;12.30;11.00;;;;;;;1.57;58.63;98930.84;5010358;28;103152;-73
2022/03/05 02:04:43;;;;;;;12.77;11.48;;;;;;;1.23;59.53;98923.25;5016439;27;102804;-69
2022/03/05 02:07:14;;;;;;;13.43;11.25;;;;;;;0.30;63.65;98927.75;5014300;28;102862;-69
2022/03/05 02:09:42;;;;;;;12.52;11.05;;;;;;;0.39;62.90;98924.06;5009360;28;104153;-69
2022/03/05 02:12:10;;;;;;;11.52;10.32;;;;;;;0.95;61.65;98920.66;5017940;27;103172;-69
2022/03/05 02:14:39;;;;;;;12.18;10.88;;;;;;;1.09;60.46;98922.84;5015982;28;102514;-69
2022/03/05 02:17:08;;;;;;;9.63;8.60;;;;;;;1.40;59.54;98925.31;5017114;27;103953;-69
2022/03/05 02:19:37;;;;;;;9.60;8.68;;;;;;;1.58;58.95;98924.72;5014080;28;103234;-69
2022/03/05 02:22:10;;;;;;;9.47;8.47;;;;;;;1.58;59.06;98928.19;5015839;28;103185;-73
2022/03/05 02:24:39;;;;;;;13.32;11.93;;;;;;;0.40;63.12;98934.41;5014789;28;102705;-74
2022/03/05 02:27:08;;;;;;;10.52;9.43;;;;;;;1.00;62.15;98928.31;5012053;28;103160;-73
2022/03/05 02:29:37;;;;;;;13.50;12.10;;;;;;;0.24;63.45;98934.88;5015433;28;103790;-73
2022/03/05 02:32:06;;;;;;;10.87;9.77;;;;;;;0.96;62.35;98934.50;5016026;27;103182;-74
2022/03/05 02:34:34;;;;;;;11.00;9.90;;;;;;;1.10;61.41;98932.31;5014399;27;102616;-73
2022/03/05 02:37:03;;;;;;;12.27;10.90;;;;;;;1.08;61.86;98935.00;5014759;28;103959;-73
2022/03/05 02:39:32;;;;;;;14.02;12.02;;;;;;;0.63;63.84;98935.50;5015737;28;103194;-74
2022/03/05 02:42:00;;;;;;;13.15;11.75;;;;;;;0.68;63.40;98929.25;5017796;27;103181;-69
2022/03/05 02:44:28;;;;;;;13.40;11.93;;;;;;;0.26;65.16;98931.31;5016750;28;102725;-69
2022/03/05 02:46:58;;;;;;;10.13;9.13;;;;;;;0.87;63.37;98935.63;5013779;27;102924;-69
2022/03/05 02:49:26;;;;;;;11.90;10.70;;;;;;;1.15;61.77;98939.09;5014398;28;104179;-69
2022/03/05 02:51:54;;;;;;;13.80;12.03;;;;;;;0.62;63.47;98934.63;5017047;28;103591;-70
2022/03/05 02:54:23;;;;;;;14.88;12.55;;;;;;;-0.46;66.17;98934.09;5015178;28;102888;-69
2022/03/05 02:56:52;;;;;;;14.82;12.80;;;;;;;-0.36;68.01;98934.69;5013893;28;103096;-74
2022/03/05 02:59:25;;;;;;;13.50;11.80;;;;;;;0.42;64.82;98935.19;5015341;27;104214;-73
2022/03/05 03:01:53;;;;;;;13.17;11.77;;;;;;;0.28;65.42;98939.91;5006771;28;103938;-73
2022/03/05 03:04:21;;;;;;;12.60;11.33;;;;;;;0.59;64.37;98932.13;5014083;28;102646;-73
2022/03/05 03:06:50;;;;;;;10.55;9.45;;;;;;;0.78;63.18;98935.91;5014418;28;102694;-74
2022/03/05 03:09:18;;;;;;;13.55;11.57;;;;;;;0.49;63.99;98931.53;5013871;28;103171;-75
2022/03/05 03:11:46;;;;;;;10.13;9.13;;;;;;;0.77;63.14;98938.53;5020461;28;103252;-74
2022/03/05 03:14:16;;;;;;;14.57;13.05;;;;;;;-0.22;65.24;98936.06;5019411;28;102635;-72
2022/03/05 03:16:44;;;;;;;11.93;10.73;;;;;;;-0.10;67.09;98943.56;5019081;28;102601;-73
2022/03/05 03:19:12;;;;;;;12.63;11.25;;;;;;;0.18;65.41;98938.47;5017584;27;103938;-74
2022/03/05 03:21:39;;;;;;;11.80;10.57;;;;;;;0.53;64.28;98945.31;5014375;28;103192;-73
2022/03/05 03:24:07;;;;;;;13.55;11.55;;;;;;;-0.45;67.88;98940.16;5012693;28;102607;-73
2022/03/05 03:26:35;;;;;;;13.18;11.50;;;;;;;-0.02;65.57;98941.59;5016405;28;102751;-73
2022/03/05 03:29:04;;;;;;;13.65;12.25;;;;;;;-0.03;65.03;98939.06;5015542;27;103808;-72
2022/03/05 03:31:33;;;;;;;11.10;9.90;;;;;;;0.35;64.49;98946.66;5015898;28;104192;-73
2022/03/05 03:34:01;;;;;;;12.45;11.25;;;;;;;0.40;63.75;98939.59;5015643;28;103094;-73
2022/03/05 03:36:29;;;;;;;11.63;10.43;;;;;;;0.30;65.19;98951.16;5012516;28;103975;-69
2022/03/05 03:38:57;;;;;;;13.48;12.07;;;;;;;0.20;64.56;98946.22;5014252;28;103286;-68
2022/03/05 03:41:25;;;;;;;13.00;11.07;;;;;;;0.30;63.72;98943.34;5015289;27;103217;-68
2022/03/05 03:43:53;;;;;;;11.63;10.50;;;;;;;0.45;63.74;98948.09;5014402;27;102994;-72
2022/03/05 03:46:21;;;;;;;10.47;9.37;;;;;;;0.66;63.16;98943.19;5014556;28;102761;-72
2022/03/05 03:48:51;;;;;;;12.95;11.43;;;;;;;-0.13;65.76;98945.38;5013502;28;104026;-73
2022/03/05 03:51:19;;;;;;;12.65;11.35;;;;;;;0.28;64.83;98945.13;5012165;28;103409;-72
2022/03/05 03:53:47;;;;;;;11.45;10.25;;;;;;;0.29;64.30;98945.97;5010661;28;102810;-72
2022/03/05 03:56:15;;;;;;;11.77;10.52;;;;;;;0.49;63.32;98944.53;5015416;28;102696;-73
2022/03/05 03:58:43;;;;;;;11.13;9.45;;;;;;;0.52;63.00;98943.59;5013466;28;104093;-69
2022/03/05 04:01:11;;;;;;;13.35;11.95;;;;;;;-0.02;63.29;98951.13;5015252;28;103228;-68
2022/03/05 04:03:40;;;;;;;11.48;10.27;;;;;;;0.10;64.91;98950.81;5011790;27;102625;-72
2022/03/05 04:06:09;;;;;;;11.65;10.55;;;;;;;0.38;63.89;98946.59;5011994;28;103205;-72
2022/03/05 04:08:41;;;;;;;14.33;12.63;;;;;;;-0.92;67.04;98949.03;5018042;28;104123;-68
2022/03/05 04:11:10;;;;;;;11.53;10.33;;;;;;;-0.20;66.74;98951.63;5015559;28;102971;-69
2022/03/05 04:13:38;;;;;;;13.77;12.30;;;;;;;-1.08;67.96;98958.91;5020091;27;102649;-69
2022/03/05 04:16:07;;;;;;;13.40;11.95;;;;;;;-1.08;70.55;98958.03;5015809;28;103998;-69
2022/03/05 04:18:35;;;;;;;11.45;10.25;;;;;;;-0.29;67.71;98952.72;5019356;28;104008;-68
2022/03/05 04:21:04;;;;;;;14.30;12.67;;;;;;;-0.65;67.76;98953.59;5013392;28;103172;-68
2022/03/05 04:23:33;;;;;;;14.60;13.02;;;;;;;-1.04;67.25;98959.69;5018864;27;102585;-68
2022/03/05 04:26:02;;;;;;;11.77;10.57;;;;;;;-0.74;69.66;98953.81;5018839;27;102677;-68
2022/03/05 04:28:30;;;;;;;15.23;12.82;;;;;;;-1.27;69.33;98957.59;5017413;27;104163;-68
2022/03/05 04:30:58;;;;;;;12.30;10.98;;;;;;;-0.84;70.02;98963.53;5016876;27;103160;-68
2022/03/05 04:33:26;;;;;;;13.30;11.90;;;;;;;-0.80;67.19;98965.19;5018069;28;103036;-72
2022/03/05 04:35:54;;;;;;;12.13;10.88;;;;;;;-0.30;67.14;98963.13;5017802;27;103793;-72
2022/03/05 04:38:24;;;;;;;11.95;10.65;;;;;;;-0.18;65.92;98955.03;5019687;27;103300;-72
2022/03/05 04:40:56;;;;;;;13.00;11.63;;;;;;;-0.28;66.18;98963.94;5010568;28;103416;-72
2022/03/05 04:43:24;;;;;;;10.87;9.63;;;;;;;-0.11;65.80;98957.41;5018190;27;102856;-72
2022/03/05 04:45:52;;;;;;;11.63;10.43;;;;;;;-0.45;67.22;98966.09;5017088;27;102606;-72
2022/03/05 04:48:20;;;;;;;12.15;10.85;;;;;;;-0.56;67.42;98968.94;5017016;27;103204;-68
2022/03/05 04:50:48;;;;;;;13.73;12.07;;;;;;;-0.93;67.17;98968.94;5016562;28;103743;-68
2022/03/05 04:53:19;;;;;;;13.32;11.48;;;;;;;-0.52;67.42;98972.31;5019321;27;102733;-68
2022/03/05 04:55:48;;;;;;;13.80;11.68;;;;;;;-1.13;68.54;98980.63;5018868;27;103861;-68
2022/03/05 04:58:18;;;;;;;11.70;10.50;;;;;;;-0.67;68.30;98974.38;5015502;27;103723;-68
2022/03/05 05:00:47;;;;;;;14.43;11.85;;;;;;;-1.05;67.35;98974.38;5012999;28;104134;-68
2022/03/05 05:03:15;;;;;;;14.75;12.13;;;;;;;-1.18;68.17;98972.97;5020365;28;102835;-72
2022/03/05 05:05:43;;;;;;;14.23;11.10;;;;;;;-0.67;67.85;98976.97;5013490;28;104092;-73
2022/03/05 05:08:13;;;;;;;13.77;11.68;;;;;;;-1.34;70.25;98981.91;5019793;27;104019;-73
2022/03/05 05:10:41;;;;;;;13.07;11.68;;;;;;;-1.51;70.91;98983.97;5020159;27;103425;-73
2022/03/05 05:13:13;;;;;;;13.48;11.25;;;;;;;-0.93;68.54;98978.47;5017878;28;102694;-72
2022/03/05 05:15:42;;;;;;;11.67;10.40;;;;;;;-0.52;67.22;98977.50;5020362;27;104450;-72
2022/03/05 05:18:11;;;;;;;14.13;11.87;;;;;;;-0.93;68.41;98979.31;5013321;28;104170;-72
2022/03/05 05:20:39;;;;;;;10.88;9.73;;;;;;;-0.56;67.94;98979.31;5014015;28;104138;-70
2022/03/05 05:23:07;;;;;;;12.75;11.35;;;;;;;-0.77;66.69;98983.28;5013536;28;102648;-75
2022/03/05 05:25:35;;;;;;;10.68;9.57;;;;;;;-0.67;67.40;98987.34;5016328;28;103708;-75
2022/03/05 05:28:03;;;;;;;12.27;10.98;;;;;;;-0.89;68.94;98991.31;5013488;28;103986;-75
2022/03/05 05:30:32;;;;;;;11.88;10.65;;;;;;;-0.96;69.30;98984.56;5014544;28;103293;-76
2022/03/05 05:33:02;;;;;;;14.23;11.40;;;;;;;-0.65;67.56;98990.78;5017338;28;102807;-77
2022/03/05 05:35:30;;;;;;;12.93;11.30;;;;;;;-1.00;68.04;98993.28;5017066;28;103124;-70
2022/03/05 05:37:58;;;;;;;12.63;11.32;;;;;;;-0.86;67.78;98995.59;5013870;28;103457;-68
2022/03/05 05:40:26;;;;;;;11.82;10.20;;;;;;;-1.21;71.08;98999.78;5018542;28;103996;-70
2022/03/05 05:42:54;;;;;;;14.80;12.30;;;;;;;-1.17;69.53;99010.94;5016883;28;103019;-70
2022/03/05 05:45:22;;;;;;;12.65;11.32;;;;;;;-1.21;70.64;99010.13;5016671;28;102873;-71
2022/03/05 05:47:50;;;;;;;12.10;10.82;;;;;;;-1.23;70.07;99014.50;5006203;28;104529;-70
2022/03/05 05:50:20;;;;;;;10.77;9.68;;;;;;;-0.71;68.73;99010.81;5015012;28;104180;-70
2022/03/05 05:52:47;;;;;;;10.40;9.30;;;;;;;-0.46;66.98;99008.50;5012022;28;102584;-70
2022/03/05 05:55:15;;;;;;;14.45;11.95;;;;;;;-0.82;66.09;99015.41;5018010;28;103709;-70
2022/03/05 05:57:43;;;;;;;13.77;12.27;;;;;;;-1.29;70.35;99022.41;5017650;27;103970;-70
2022/03/05 06:00:12;;;;;;;15.68;13.07;;;;;;;-1.08;68.60;99021.13;5015341;28;103215;-70
2022/03/05 06:02:41;;;;;;;14.82;13.20;;;;;;;-1.31;68.77;99012.97;5009632;28;103143;-70
2022/03/05 06:05:10;;;;;;;11.45;10.25;;;;;;;-0.76;68.35;99018.69;5017116;27;104344;-71
2022/03/05 06:07:39;;;;;;;16.15;13.55;;;;;;;-1.92;71.06;99026.22;5010320;28;103216;-71
2022/03/05 06:10:09;;;;;;;13.27;11.88;;;;;;;-1.35;71.22;99021.69;5001713;28;103257;-71
2022/03/05 06:12:37;;;;;;;15.45;12.38;;;;;;;-1.22;69.34;99033.53;5011750;28;102733;-71
2022/03/05 06:15:08;;;;;;;14.52;12.45;;;;;;;-1.34;70.31;99031.16;5015849;28;102784;-70
2022/03/05 06:17:36;;;;;;;11.57;10.23;;;;;;;-0.87;68.92;99031.03;5013920;28;103751;-71
2022/03/05 06:20:05;;;;;;;13.00;11.70;;;;;;;-0.78;67.94;99035.19;5014364;27;103228;-71
2022/03/05 06:22:33;;;;;;;10.38;9.27;;;;;;;-0.47;67.15;99035.34;5017301;28;102828;-71
2022/03/05 06:25:03;;;;;;;14.65;12.57;;;;;;;-1.40;70.47;99044.22;5014710;28;102925;-68
2022/03/05 06:27:31;;;;;;;12.98;11.27;;;;;;;-0.75;69.04;99045.50;5015188;28;104124;-68
2022/03/05 06:29:59;;;;;;;11.70;10.32;;;;;;;-0.60;68.02;99039.97;5008064;27;103640;-71
2022/03/05 06:32:27;;;;;;;15.30;12.13;;;;;;;-0.49;66.83;99047.53;5015996;27;102606;-71
2022/03/05 06:34:55;;;;;;;11.05;9.90;;;;;;;-0.43;67.92;99037.00;5015096;28;104162;-71
2022/03/05 06:37:24;;;;;;;14.15;12.45;;;;;;;-0.49;67.13;99047.53;5016064;27;103492;-70
2022/03/05 06:39:52;;;;;;;11.18;10.00;;;;;;;-0.13;67.15;99049.25;5011118;27;103182;-70
2022/03/05 06:42:21;;;;;;;10.85;9.75;;;;;;;0.06;66.06;99047.91;5013464;27;102612;-69
2022/03/05 06:44:49;;;;;;;10.18;9.18;;;;;;;0.19;65.15;99057.13;5014573;28;104007;-69
2022/03/05 06:47:17;;;;;;;11.63;10.30;;;;;;;0.33;65.15;99060.22;5015961;28;104276;-70
2022/03/05 06:49:45;;;;;;;11.70;10.50;;;;;;;0.41;64.50;99063.50;5013975;28;103348;-77
2022/03/05 06:52:13;;;;;;;11.68;10.40;;;;;;;0.47;64.46;99071.13;5014047;28;102772;-77
2022/03/05 06:54:41;;;;;;;13.70;11.70;;;;;;;0.53;64.36;99070.13;5013270;28;102770;-77
2022/03/05 06:57:09;;;;;;;12.88;11.07;;;;;;;0.61;64.54;99072.50;5010832;28;103354;-77
2022/03/05 06:59:41;;;;;;;11.20;10.02;;;;;;;0.76;63.89;99074.72;5021964;27;103874;-76
2022/03/05 07:02:09;;;;;;;10.83;9.73;;;;;;;0.88;63.34;99071.75;5018503;27;102622;-70
2022/03/05 07:04:39;;;;;;;11.50;10.35;;;;;;;0.95;63.10;99071.56;5013927;27;103608;-69
2022/03/05 07:07:07;;;;;;;12.13;10.93;;;;;;;1.05;62.71;99074.72;5015701;27;103293;-70
2022/03/05 07:09:35;;;;;;;11.57;10.38;;;;;;;1.17;62.98;99074.41;5014630;27;102861;-70
2022/03/05 07:12:05;;;;;;;11.73;10.52;;;;;;;1.33;62.63;99074.78;5014908;27;102924;-70
2022/03/05 07:14:33;;;;;;;11.20;10.07;;;;;;;1.49;62.13;99071.69;5013151;28;103894;-70
2022/03/05 07:17:02;;;;;;;11.48;10.27;;;;;;;1.66;61.82;99077.25;5016147;27;103331;-69
2022/03/05 07:19:31;;;;;;;13.82;12.32;;;;;;;1.55;62.36;99071.50;5014708;27;103208;-69
2022/03/05 07:21:59;;;;;;;11.68;10.48;;;;;;;1.92;61.80;99072.97;5009269;28;102820;-70
2022/03/05 07:24:27;;;;;;;11.77;10.52;;;;;;;2.27;60.97;99077.91;5015159;28;103211;-70
2022/03/05 07:26:54;;;;;;;13.73;11.75;;;;;;;2.48;60.44;99071.97;5012884;28;104149;-70
2022/03/05 07:29:22;;;;;;;12.35;11.15;;;;;;;2.75;60.27;99068.41;5014158;28;103464;-70
2022/03/05 07:31:50;;;;;;;11.90;10.60;;;;;;;3.12;58.71;99069.69;5012292;27;103290;-71
2022/03/05 07:34:20;;;;;;;12.20;11.00;;;;;;;3.43;57.76;99068.50;5009738;28;104228;-77
2022/03/05 07:36:48;;;;;;;15.90;14.02;;;;;;;2.92;58.09;99067.81;5013717;27;103193;-76
2022/03/05 07:39:16;;;;;;;16.03;13.93;;;;;;;2.16;61.02;99074.81;5010828;28;103220;-76
2022/03/05 07:41:44;;;;;;;16.98;14.77;;;;;;;1.89;60.77;99076.53;5011379;27;102845;-76
2022/03/05 07:44:18;;;;;;;16.07;14.30;;;;;;;1.28;63.33;99071.47;5012874;28;103072;-76
2022/03/05 07:46:46;;;;;;;15.07;13.10;;;;;;;2.26;62.34;99065.78;5011473;28;104450;-70
2022/03/05 07:49:14;;;;;;;15.25;13.35;;;;;;;3.36;58.71;99069.66;5015051;27;103255;-70
2022/03/05 07:51:44;;;;;;;16.65;14.77;;;;;;;2.34;60.05;99074.19;5011025;28;102626;-66
2022/03/05 07:54:12;;;;;;;15.70;14.02;;;;;;;2.08;61.42;99076.78;5008489;28;103881;-65
2022/03/05 07:56:40;;;;;;;15.67;13.60;;;;;;;3.93;57.74;99061.31;5005651;28;104061;-68
2022/03/05 07:59:08;;;;;;;16.77;14.98;;;;;;;3.48;57.54;99065.75;5010966;28;103220;-67
2022/03/05 08:01:36;;;;;;;16.33;14.63;;;;;;;3.68;58.27;99068.41;5014264;27;103074;-73
2022/03/05 08:04:10;;;;;;;16.17;14.07;;;;;;;4.71;55.63;99069.41;5009727;27;104098;-68
2022/03/05 08:06:38;;;;;;;16.40;14.63;;;;;;;4.64;54.64;99065.34;5011895;28;104162;-68
2022/03/05 08:09:07;;;;;;;16.45;14.27;;;;;;;5.03;54.15;99066.22;5011568;28;103204;-74
2022/03/05 08:11:35;;;;;;;18.98;15.88;;;;;;;4.88;54.45;99071.31;5013398;28;102859;-74
2022/03/05 08:14:03;;;;;;;16.40;14.73;;;;;;;5.50;53.79;99073.75;5006788;28;102655;-68
2022/03/05 08:16:32;;;;;;;16.87;15.17;;;;;;;4.88;53.65;99063.44;5013135;28;104102;-68
2022/03/05 08:19:00;;;;;;;17.55;15.65;;;;;;;4.20;54.53;99076.81;5012294;28;103833;-68
2022/03/05 08:21:28;;;;;;;17.93;16.03;;;;;;;3.91;56.83;99073.59;5012059;28;103122;-74
2022/03/05 08:23:57;;;;;;;18.98;15.93;;;;;;;3.87;57.02;99077.25;5016138;27;103499;-75
2022/03/05 08:26:29;;;;;;;19.20;15.67;;;;;;;3.93;55.56;99071.78;5014480;27;104112;-75
2022/03/05 08:28:57;;;;;;;16.58;14.90;;;;;;;5.66;54.16;99064.25;5012745;28;103166;-74
2022/03/05 08:31:24;;;;;;;17.58;15.82;;;;;;;6.05;51.90;99064.16;5010298;27;102651;-65
2022/03/05 08:33:53;;;;;;;17.10;15.30;;;;;;;5.50;53.92;99073.75;5014648;28;102841;-68
2022/03/05 08:36:22;;;;;;;16.33;14.73;;;;;;;6.89;51.38;99070.38;5012174;27;104079;-67
2022/03/05 08:38:50;;;;;;;15.98;14.38;;;;;;;6.88;49.26;99071.28;5013200;28;103544;-67
2022/03/05 08:41:18;;;;;;;17.90;16.02;;;;;;;4.46;54.26;99072.19;5010289;27;102653;-67
2022/03/05 08:43:47;;;;;;;17.52;15.70;;;;;;;5.53;54.53;99076.22;5013234;27;103839;-67
2022/03/05 08:46:15;;;;;;;17.60;15.52;;;;;;;6.53;51.13;99066.13;5011329;28;104055;-67
2022/03/05 08:48:43;;;;;;;18.38;16.50;;;;;;;5.26;54.07;99076.53;5013276;28;103249;-68
2022/03/05 08:51:17;;;;;;;16.70;15.05;;;;;;;6.96;50.96;99068.28;5011208;28;102722;-67
2022/03/05 08:53:45;;;;;;;17.00;15.30;;;;;;;6.98;51.18;99063.78;5007097;27;103708;-67
2022/03/05 08:56:16;;;;;;;16.55;14.85;;;;;;;7.29;49.29;99060.41;5014062;28;104347;-68
2022/03/05 08:58:44;;;;;;;17.35;15.55;;;;;;;5.84;51.18;99058.13;5014172;28;103567;-68
2022/03/05 09:01:13;;;;;;;16.33;14.73;;;;;;;7.11;50.59;99062.22;5014905;27;103955;-67
2022/03/05 09:03:42;;;;;;;17.17;15.48;;;;;;;7.75;48.83;99050.88;5016110;28;103965;-67
2022/03/05 09:06:10;;;;;;;16.17;14.67;;;;;;;8.27;48.57;99052.28;5017454;28;104032;-67
2022/03/05 09:08:38;;;;;;;16.15;14.55;;;;;;;8.68;47.08;99053.34;5013881;28;103512;-67
2022/03/05 09:11:07;;;;;;;17.00;15.25;;;;;;;6.34;49.41;99056.53;5013972;27;102594;-67
2022/03/05 09:13:35;;;;;;;16.77;15.13;;;;;;;6.39;50.64;99051.94;5017940;27;103872;-67
2022/03/05 09:16:04;;;;;;;15.73;14.13;;;;;;;8.01;48.00;99039.72;5014793;27;103511;-67
2022/03/05 09:18:33;;;;;;;16.35;14.75;;;;;;;8.29;46.32;99039.03;5014277;27;103202;-67
2022/03/05 09:21:01;;;;;;;16.10;14.50;;;;;;;8.21;46.34;99033.31;5011779;28;103326;-67
2022/03/05 09:23:29;;;;;;;16.55;14.77;;;;;;;7.51;46.83;99035.50;5018364;27;103895;-67
2022/03/05 09:25:57;;;;;;;15.70;14.10;;;;;;;8.66;46.32;99036.81;5013467;28;103539;-68
2022/03/05 09:28:25;;;;;;;15.73;14.07;;;;;;;8.67;45.60;99029.75;5011529;28;104240;-67
2022/03/05 09:30:53;;;;;;;14.60;13.20;;;;;;;8.81;44.53;99034.19;5016231;28;102698;-73
2022/03/05 09:33:22;;;;;;;14.80;13.30;;;;;;;8.61;45.66;99030.97;5015389;28;104024;-73
2022/03/05 09:35:53;;;;;;;15.43;13.82;;;;;;;7.91;45.89;99033.31;5017339;28;104031;-74
2022/03/05 09:38:21;;;;;;;14.45;13.05;;;;;;;7.98;45.27;99034.63;5011816;28;103014;-67
2022/03/05 09:40:49;;;;;;;15.10;13.60;;;;;;;8.50;46.16;99033.38;5015250;27;102667;-68
2022/03/05 09:43:19;;;;;;;14.90;13.40;;;;;;;8.63;44.95;99034.34;5016265;27;102768;-69
2022/03/05 09:45:48;;;;;;;15.30;13.70;;;;;;;8.86;45.58;99026.84;5016583;27;103178;-68
2022/03/05 09:48:18;;;;;;;14.38;12.98;;;;;;;9.21;44.56;99033.47;5016198;28;103238;-74
2022/03/05 09:50:46;;;;;;;14.18;12.80;;;;;;;8.67;43.65;99030.56;5013235;28;102682;-73
2022/03/05 09:53:16;;;;;;;13.50;12.20;;;;;;;7.84;44.06;99026.66;5012641;28;104351;-73
2022/03/05 09:55:44;;;;;;;13.57;12.20;;;;;;;6.80;45.25;99033.22;5014636;28;104130;-73
2022/03/05 09:58:32;;;;;;;13.35;11.98;;;;;;;7.61;44.51;99032.38;5011930;28;104195;-72
2022/03/05 10:01:00;;;;;;;12.88;11.68;;;;;;;8.55;42.43;99030.47;5016256;28;104019;-73
2022/03/05 10:03:28;;;;;;;12.87;11.57;;;;;;;8.94;42.56;99027.25;5012526;27;102946;-68
2022/03/05 10:06:15;;;;;;;13.45;12.13;;;;;;;9.42;42.40;99024.25;5013708;27;104024;-68
2022/03/05 10:08:45;;;;;;;13.13;11.93;;;;;;;8.35;42.57;99028.16;5015818;28;102640;-73
2022/03/05 10:11:13;;;;;;;11.97;10.87;;;;;;;8.88;42.04;99024.97;5014833;27;102996;-74
2022/03/05 10:13:42;;;;;;;12.35;11.05;;;;;;;8.76;40.68;99029.19;5011600;28;103928;-74
2022/03/05 10:16:24;;;;;;;13.23;11.82;;;;;;;8.42;42.08;99018.97;5016158;28;102700;-74
2022/03/05 10:18:54;;;;;;;12.37;11.10;;;;;;;8.77;41.13;99023.00;5014046;28;103314;-73
2022/03/05 10:21:30;;;;;;;12.23;11.13;;;;;;;9.04;40.12;99023.94;5012420;28;103100;-74
2022/03/05 10:24:08;;;;;;;11.45;10.35;;;;;;;9.38;40.56;99028.00;5029558;27;104152;-73
2022/03/05 10:26:56;;;;;;;10.77;9.77;;;;;;;8.93;39.92;99022.91;5004300;27;104294;-73
2022/03/05 10:29:25;;;;;;;10.40;9.43;;;;;;;9.30;39.02;99019.72;5009819;27;103183;-73
2022/03/05 10:31:59;;;;;;;9.57;8.68;;;;;;;9.20;37.98;99013.34;5010062;28;102823;-73
2022/03/05 10:34:27;;;;;;;10.47;9.40;;;;;;;9.37;39.16;99015.78;5005905;28;103406;-73
2022/03/05 10:37:00;;;;;;;10.43;9.32;;;;;;;9.72;38.42;99010.88;5012117;27;103030;-73
2022/03/05 10:39:32;;;;;;;10.18;9.25;;;;;;;9.43;38.70;99007.44;5013341;28;103346;-73
2022/03/05 10:42:00;;;;;;;9.77;8.88;;;;;;;8.21;39.19;99010.50;5017300;27;102669;-73
2022/03/05 10:44:28;;;;;;;10.33;9.33;;;;;;;8.51;40.08;98997.34;5011112;28;102601;-73
2022/03/05 10:46:58;;;;;;;10.02;9.13;;;;;;;8.76;39.21;98999.38;5005333;27;103525;-73
2022/03/05 10:49:29;;;;;;;9.83;8.83;;;;;;;8.90;38.57;99000.22;5010459;28;104886;-73
2022/03/05 10:52:07;;;;;;;10.38;9.18;;;;;;;8.76;39.67;98996.75;5005208;28;102750;-73
2022/03/05 10:54:39;;;;;;;10.05;9.05;;;;;;;9.62;38.68;98999.25;5004141;28;104164;-73
2022/03/05 10:57:09;;;;;;;10.73;9.73;;;;;;;8.78;38.75;98990.44;5007164;28;103847;-73
2022/03/05 10:59:39;;;;;;;10.27;9.27;;;;;;;9.65;38.31;98984.06;5008815;28;103192;-73
2022/03/05 11:02:08;;;;;;;11.07;9.98;;;;;;;8.83;38.87;98987.53;5008242;28;103078;-73
2022/03/05 11:04:39;;;;;;;10.27;9.27;;;;;;;8.71;39.80;98989.97;5015467;28;104110;-73
2022/03/05 11:07:08;;;;;;;10.67;9.70;;;;;;;9.74;38.52;98982.63;5006626;28;103173;-73
2022/03/05 11:09:42;;;;;;;9.77;8.88;;;;;;;9.69;38.19;98989.97;5007581;28;103066;-73
2022/03/05 11:12:16;;;;;;;10.13;9.23;;;;;;;10.19;37.58;98984.91;5008856;27;102685;-73
2022/03/05 11:14:46;;;;;;;10.60;9.60;;;;;;;9.57;37.92;98983.69;5005345;28;103745;-73
2022/03/05 11:17:17;;;;;;;10.48;9.57;;;;;;;10.34;36.90;98983.06;5011085;27;103210;-68
2022/03/05 11:19:45;;;;;;;10.80;9.80;;;;;;;10.23;37.39;98985.56;5013107;28;103241;-67
2022/03/05 11:22:15;;;;;;;10.80;9.80;;;;;;;8.82;37.36;98986.66;5013956;28;102768;-67
2022/03/05 11:24:45;;;;;;;11.07;10.07;;;;;;;9.59;38.85;98983.63;5015117;27;102732;-67